Flight Track Log - Related Links

Times and Time Zones

All times are in EDT time to prevent confusion due to time zone crossing. See the SWA3937 flight status page for this flight to view local times or setup timezone preferences in your user account.

Time Position Orientation Groundspeed Altitude Reporting Facility
EDT Latitude Longitude Course Direction KTS MPH feet Rate Location/Type
Wed 02:44:03 PM 33.4333 -112.0333 245° Southwest 149 171 2,100  Level Phoenix TRACON
Wed 02:45:07 PM 33.4128 -112.0861 245° Southwest 183 211 3,600 2,095 Climbing Albuquerque Center
Wed 02:46:09 PM 33.3883 -112.1653 250° West 247 284 6,500 2,565 Climbing Albuquerque Center
Wed 02:47:11 PM 33.3228 -112.1531 171° South 295 339 8,900 2,488 Climbing Albuquerque Center
Wed 02:48:12 PM 33.3381 -112.0556 79° East 303 349 11,600 2,780 Climbing Albuquerque Center
Wed 02:49:14 PM 33.3633 -111.9589 73° East 308 354 14,600 2,565 Climbing Albuquerque Center
Wed 02:50:16 PM 33.3953 -111.8225 74° East 360 414 16,900 2,032 Climbing Albuquerque Center
Wed 02:51:18 PM 33.4272 -111.6906 74° East 410 472 18,800 1,839 Climbing Albuquerque Center
Wed 02:52:20 PM 33.4628 -111.5450 74° East 456 525 20,700 1,902 Climbing Albuquerque Center
Wed 02:53:21 PM 33.4981 -111.3928 74° East 477 549 22,700 2,000 Climbing Albuquerque Center
Wed 02:54:23 PM 33.5181 -111.2306 82° East 496 571 24,800 1,790 Climbing Albuquerque Center
Wed 02:55:25 PM 33.5372 -111.0617 82° East 513 590 26,400 1,548 Climbing Albuquerque Center
Wed 02:56:27 PM 33.5714 -110.8469 79° East 546 628 28,000 1,452 Climbing Albuquerque Center
Wed 02:57:29 PM 33.6275 -110.6733 69° East 558 642 29,400 1,452 Climbing Albuquerque Center
Wed 02:58:31 PM 33.6847 -110.4931 69° East 573 659 31,000 1,742 Climbing Albuquerque Center
Wed 02:59:33 PM 33.7406 -110.3178 69° East 580 667 33,000 1,790 Climbing Albuquerque Center
Wed 03:00:35 PM 33.8092 -110.1047 69° East 576 663 34,700 1,548 Climbing Albuquerque Center
Wed 03:01:37 PM 33.8653 -109.9250 69° East 577 664 36,200 1,122 Climbing Albuquerque Center
Wed 03:02:38 PM 33.8961 -109.7425 78° East 561 646 37,000 390 Climbing Albuquerque Center
Wed 03:03:40 PM 33.9278 -109.5608 78° East 557 641 37,000  Level Albuquerque Center
Wed 03:04:42 PM 33.9597 -109.3772 78° East 561 646 37,000  Level Albuquerque Center
Wed 03:05:44 PM 33.9906 -109.1936 79° East 562 647 37,000  Level Albuquerque Center
Wed 03:06:46 PM 34.0283 -108.9725 78° East 564 649 37,000  Level Albuquerque Center
Wed 03:07:48 PM 34.0583 -108.7875 79° East 564 649 37,000  Level Albuquerque Center
Wed 03:08:51 PM 34.0878 -108.6019 79° East 566 651 37,000  Level Albuquerque Center
Wed 03:09:52 PM 34.1178 -108.4164 79° East 567 652 37,000  Level Albuquerque Center
Wed 03:10:54 PM 34.1481 -108.2311 79° East 567 652 37,000  Level Albuquerque Center
Wed 03:11:56 PM 34.1819 -108.0097 79° East 569 655 37,000  Level Albuquerque Center
Wed 03:12:58 PM 34.2108 -107.8253 79° East 566 651 37,000  Level Albuquerque Center
Wed 03:14:00 PM 34.2394 -107.6472 79° East 552 635 37,000  Level Albuquerque Center
Wed 03:15:02 PM 34.2675 -107.4650 79° East 553 636 37,000  Level Albuquerque Center
Wed 03:16:04 PM 34.2947 -107.2817 80° East 556 640 37,000  Level Albuquerque Center
Wed 03:17:06 PM 34.3281 -107.0611 80° East 558 642 37,000  Level Albuquerque Center
Wed 03:18:08 PM 34.3553 -106.8758 80° East 563 648 37,000  Level Albuquerque Center
Wed 03:19:10 PM 34.3819 -106.6864 80° East 569 655 37,000  Level Albuquerque Center
Wed 03:20:12 PM 34.4111 -106.4994 79° East 570 656 37,000  Level Albuquerque Center
Wed 03:21:14 PM 34.4378 -106.3136 80° East 566 651 37,000  Level Albuquerque Center
Wed 03:22:16 PM 34.4667 -106.1017 81° East 562 647 37,000  Level Albuquerque Center
Wed 03:23:18 PM 34.4919 -105.9114 81° East 566 651 37,000  Level Albuquerque Center
Wed 03:24:20 PM 34.5175 -105.7228 81° East 565 650 37,000  Level Albuquerque Center
Wed 03:25:22 PM 34.5444 -105.5367 80° East 559 643 37,000  Level Albuquerque Center
Wed 03:26:24 PM 34.5736 -105.3211 81° East 552 635 37,000  Level Albuquerque Center
Wed 03:27:26 PM 34.5989 -105.1333 81° East 558 642 37,000  Level Albuquerque Center
Wed 03:28:28 PM 34.6239 -104.9481 81° East 555 639 37,000  Level Albuquerque Center
Wed 03:29:30 PM 34.6472 -104.7608 81° East 556 640 37,000  Level Albuquerque Center
Wed 03:30:32 PM 34.6725 -104.5742 81° East 557 641 37,000  Level Albuquerque Center
Wed 03:31:34 PM 34.6967 -104.3875 81° East 558 642 37,000  Level Albuquerque Center
Wed 03:32:36 PM 34.7253 -104.1636 81° East 570 656 37,000  Level Albuquerque Center
Wed 03:33:38 PM 34.7478 -103.9742 82° East 569 655 37,000  Level Albuquerque Center
Wed 03:34:40 PM 34.7703 -103.7842 82° East 568 654 37,000  Level Albuquerque Center
Wed 03:35:42 PM 34.7939 -103.5944 81° East 567 652 37,000  Level Albuquerque Center
Wed 03:36:44 PM 34.8161 -103.4075 82° East 561 646 37,000  Level Albuquerque Center
Wed 03:37:46 PM 34.8375 -103.2206 82° East 557 641 37,000  Level Albuquerque Center
Wed 03:38:48 PM 34.8600 -103.0331 82° East 557 641 37,000  Level Albuquerque Center
Wed 03:39:50 PM 34.8850 -102.8133 82° East 557 641 37,000  Level Albuquerque Center
Wed 03:40:52 PM 34.9058 -102.6275 82° East 553 636 37,000  Level Albuquerque Center
Wed 03:41:54 PM 34.9281 -102.4319 82° East 546 628 37,000  Level Albuquerque Center
Wed 03:42:56 PM 34.9472 -102.2514 83° East 542 624 37,000  Level Albuquerque Center
Wed 03:43:57 PM 34.9667 -102.0697 83° East 543 625 37,000  Level Albuquerque Center
Wed 03:44:59 PM 34.9867 -101.8808 83° East 541 623 37,000  Level Albuquerque Center
Wed 03:46:01 PM 35.0069 -101.7108 82° East 541 623 37,000  Level Albuquerque Center
Wed 03:47:03 PM 35.0553 -101.5086 74° East 540 621 37,000  Level Albuquerque Center
Wed 03:48:05 PM 35.1019 -101.3367 72° East 536 617 37,000  Level Albuquerque Center
Wed 03:49:07 PM 35.1431 -101.1658 74° East 532 612 37,000  Level Albuquerque Center
Wed 03:50:09 PM 35.1875 -100.9961 72° East 529 609 37,000  Level Albuquerque Center
Wed 03:51:11 PM 35.2325 -100.8269 72° East 527 606 37,000  Level Albuquerque Center
Wed 03:52:13 PM 35.2789 -100.6519 72° East 526 605 37,000  Level Albuquerque Center
Wed 03:53:15 PM 35.3250 -100.4825 72° East 524 603 37,000  Level Albuquerque Center
Wed 03:54:17 PM 35.3800 -100.2781 72° East 524 603 37,000  Level Albuquerque Center
Wed 03:55:18 PM 35.4264 -100.1092 71° East 524 603 37,000  Level Albuquerque Center
Wed 03:56:20 PM 35.4703 -99.9400 72° East 522 601 37,000  Level Albuquerque Center
Wed 03:57:22 PM 35.5003 -99.7669 78° East 519 597 37,000  Level Albuquerque Center
Wed 03:58:24 PM 35.5303 -99.5950 78° East 517 595 37,000  Level Albuquerque Center
Wed 03:58:39 PM 35.5403 -99.5333 79° East 515 593 37,000  Level Fort Worth Center
Wed 03:59:39 PM 35.5703 -99.3631 78° East 510 587 37,000  Level Fort Worth Center
Wed 04:00:39 PM 35.6000 -99.1928 78° East 505 581 37,000  Level Fort Worth Center
Wed 04:01:39 PM 35.6294 -99.0225 78° East 505 581 37,000  Level Fort Worth Center
Wed 04:02:39 PM 35.6606 -98.8544 77° East 505 581 37,000  Level Fort Worth Center
Wed 04:03:39 PM 35.6894 -98.6836 78° East 505 581 37,000  Level Fort Worth Center
Wed 04:04:39 PM 35.7183 -98.5153 78° East 505 581 37,000  Level Fort Worth Center
Wed 04:05:39 PM 35.7489 -98.3469 77° East 505 581 37,000  Level Fort Worth Center
Wed 04:07:36 PM 35.8006 -98.0297 79° East 509 586 37,000  Level Kansas City Center
Wed 04:08:38 PM 35.7928 -97.8583 93° East 503 579 37,000  Level Kansas City Center
Wed 04:09:41 PM 35.7756 -97.6892 97° East 497 572 37,000  Level Kansas City Center
Wed 04:10:41 PM 35.7586 -97.5175 97° East 500 575 37,000  Level Kansas City Center
Wed 04:11:45 PM 35.7425 -97.3453 97° East 501 577 37,000  Level Kansas City Center
Wed 04:12:03 PM 35.7356 -97.2806 98° East 496 571 37,000  Level Fort Worth Center
Wed 04:13:03 PM 35.7167 -97.1069 98° East 496 571 37,000  Level Fort Worth Center
Wed 04:14:03 PM 35.6950 -96.9203 98° East 501 577 37,000  Level Fort Worth Center
Wed 04:14:48 PM 35.6831 -96.7942 97° East 504 580 37,000  Level Kansas City Center
Wed 04:15:52 PM 35.6642 -96.6244 98° East 502 578 37,000  Level Kansas City Center
Wed 04:16:53 PM 35.6456 -96.4561 98° East 498 573 37,000  Level Kansas City Center
Wed 04:18:03 PM 35.6219 -96.2467 98° East 501 577 37,000  Level Fort Worth Center
Wed 04:19:03 PM 35.6036 -96.0783 98° East 501 577 37,000  Level Fort Worth Center
Wed 04:20:03 PM 35.5850 -95.9153 98° East 496 571 37,000  Level Fort Worth Center
Wed 04:21:03 PM 35.5706 -95.7650 97° East 491 565 37,000  Level Fort Worth Center
Wed 04:23:05 PM 35.5314 -95.4386 98° East 487 560 37,000  Level Kansas City Center
Wed 04:23:29 PM 35.5219 -95.3669 99° East 473 544 37,000  Level Memphis Center
Wed 04:24:29 PM 35.5014 -95.2050 99° East 473 544 37,000  Level Memphis Center
Wed 04:25:29 PM 35.4825 -95.0458 98° East 473 544 37,000  Level Memphis Center
Wed 04:26:29 PM 35.4656 -94.8817 97° East 473 544 37,000  Level Memphis Center
Wed 04:27:29 PM 35.4442 -94.7200 99° East 473 544 37,000  Level Memphis Center
Wed 04:28:29 PM 35.4247 -94.5561 98° East 479 551 37,000  Level Memphis Center
Wed 04:29:29 PM 35.4011 -94.3892 100° East 486 559 37,000 -900 Level Memphis Center
Wed 04:30:29 PM 35.3650 -94.2119 104° East 486 559 35,200 -2,331 Descending Memphis Center
Wed 04:31:30 PM 35.3175 -94.0594 111° Southeast 481 554 32,300 -2,500 Descending Memphis Center
Wed 04:32:29 PM 35.2678 -93.9097 112° Southeast 476 548 30,200 -1,966 Descending Memphis Center
Wed 04:33:29 PM 35.2214 -93.7706 112° Southeast 460 529 28,400 -2,150 Descending Memphis Center
Wed 04:34:29 PM 35.1753 -93.6314 112° Southeast 448 516 25,900 -2,550 Descending Memphis Center
Wed 04:35:29 PM 35.1306 -93.4953 112° Southeast 437 503 23,300 -2,300 Descending Memphis Center
Wed 04:36:29 PM 35.1047 -93.3597 103° East 424 488 21,300 -1,900 Descending Memphis Center
Wed 04:37:29 PM 35.0997 -93.2200 92° East 410 472 19,500 -1,900 Descending Memphis Center
Wed 04:38:29 PM 35.0964 -93.0878 92° East 404 465 17,500 -1,850 Descending Memphis Center
Wed 04:39:29 PM 35.0908 -92.9558 93° East 397 457 15,800 -1,918 Descending Memphis Center
Wed 04:40:06 PM 35.0883 -92.8822 92° East 372 428 14,400 -2,000 Descending Memphis Center
Wed 04:40:29 PM 35.0789 -92.8361 104° East 383 441 13,800 -1,770 Descending Memphis Center
Wed 04:41:07 PM 35.0528 -92.7744 117° Southeast 345 397 12,600 -2,000 Descending Memphis Center
Wed 04:41:29 PM 35.0414 -92.7261 106° East 349 402 11,800 -1,770 Descending Memphis Center
Wed 04:42:08 PM 35.0239 -92.6569 107° East 342 394 10,800 -1,500 Descending Memphis Center
Wed 04:42:29 PM 35.0119 -92.6161 110° East 349 402 10,300 -900 Descending Memphis Center
Wed 04:43:08 PM 34.9964 -92.5575 108° East 326 375 9,900 -1,100 Descending Memphis Center
Wed 04:43:29 PM 34.9886 -92.5167 103° East 324 373 9,200 -1,672 Descending Memphis Center
Wed 04:44:09 PM 34.9689 -92.4528 111° Southeast 296 341 8,200 -1,400 Descending Memphis Center
Wed 04:44:29 PM 34.9653 -92.4197 98° East 309 356 7,800 -1,091 Descending Memphis Center
Wed 04:45:04 PM 34.9536 -92.3739 107° East 284 327 7,200 -1,082 Descending Memphis Center
Wed 04:45:30 PM 34.9458 -92.3281 102° East 298 343 6,700 -1,333 Descending Memphis Center
Wed 04:45:58 PM 34.9319 -92.2847 111° Southeast 270 311 6,000 -1,322 Descending Memphis Center
Wed 04:46:29 PM 34.9222 -92.2389 104° East 281 323 5,400 -1,164 Descending Memphis Center
Wed 04:47:05 PM 34.9083 -92.1956 111° Southeast 263 303 4,700 -1,200 Descending Memphis Center
Wed 04:47:29 PM 34.9047 -92.1550 96° East 271 312 4,200 -1,082 Descending Memphis Center
Wed 04:48:06 PM 34.8697 -92.1339 154° Southeast 233 268 3,600 -1,000 Descending Memphis Center
Wed 04:48:29 PM 34.8489 -92.1233 157° South 208 239 3,200 -500 Descending Memphis Center
Wed 04:49:06 PM 34.8114 -92.1228 179° South 211 243 3,100 -612 Descending Memphis Center
Wed 04:50:07 PM 34.7714 -92.1522 211° Southwest 141 162 2,200 -1,012 Descending Memphis Center
Wed 04:50:29 PM 34.7650 -92.1622 232° Southwest 155 178 1,700 -1,500 Descending Memphis Center
Wed 04:51:07 PM 34.7478 -92.1844 227° Southwest 123 142 700 -400 Descending Memphis Center
Wed 04:51:29 PM 34.7250 -92.1689 151° Southeast 148 170 1,300 1,636 Climbing Memphis Center
Wed 04:55:00 PM 34.7167 -92.2167 215° Southwest  Level FlightAware Approximate
Wed 05:02:00 PM 34.7294 -92.2248 215° Southwest  Level Estimated
Wed 05:03:00 PM 34.7294 -92.2248 215° Southwest  Level Estimated
Wed 05:04:00 PM 34.7294 -92.2248 215° Southwest  Level Estimated
Wed 05:05:00 PM 34.7294 -92.2248 215° Southwest  Level Estimated
Wed 05:06:00 PM 34.7294 -92.2248 215° Southwest  Level Estimated

Login

Don't have an account? Register now (free) for customized features, flight alerts, and more!